createdAt,value
2018-12-23T00:01:31.562Z,101059.83
2018-12-23T00:04:38.361Z,101064.05
2018-12-23T00:07:45.102Z,101062.73
2018-12-23T00:11:04.718Z,101055.50
2018-12-23T00:14:11.366Z,101056.30
2018-12-23T00:17:18.121Z,101059.28
2018-12-23T00:20:36.970Z,101065.61
2018-12-23T00:23:43.630Z,101072.81
2018-12-23T00:26:50.460Z,101067.28
2018-12-23T00:29:57.102Z,101071.51
2018-12-23T00:33:04.225Z,101071.50
2018-12-23T00:36:11.202Z,101077.40
2018-12-23T00:39:17.854Z,101069.75
2018-12-23T00:42:36.914Z,101079.07
2018-12-23T00:45:43.659Z,101075.25
2018-12-23T00:48:50.634Z,101078.59
2018-12-23T00:52:12.123Z,101074.33
2018-12-23T00:55:19.178Z,101077.72
2018-12-23T00:58:25.822Z,101083.22
2018-12-23T01:02:15.628Z,101077.20
2018-12-23T01:05:28.781Z,101076.41
2018-12-23T01:08:32.752Z,101079.35
2018-12-23T01:11:40.312Z,101080.63
2018-12-23T01:14:57.313Z,101071.15
2018-12-23T01:18:14.423Z,101070.72
2018-12-23T01:21:31.412Z,101071.11
2018-12-23T01:24:37.384Z,101072.91
2018-12-23T01:27:45.297Z,101074.58
2018-12-23T01:31:02.910Z,101065.09
2018-12-23T01:34:19.865Z,101067.17
2018-12-23T01:37:37.015Z,101067.60
2018-12-23T01:40:43.091Z,101067.25
2018-12-23T01:43:50.720Z,101075.30
2018-12-23T01:46:58.375Z,101072.30
2018-12-23T01:50:16.057Z,101067.56
2018-12-23T01:53:23.792Z,101074.81
2018-12-23T01:56:31.432Z,101076.92
2018-12-23T01:59:38.998Z,101072.25
2018-12-23T02:02:56.288Z,101070.38
2018-12-23T02:06:03.978Z,101067.12
2018-12-23T02:09:12.221Z,101060.27
2018-12-23T02:12:29.252Z,101060.98
2018-12-23T02:15:46.374Z,101060.09
2018-12-23T02:19:03.306Z,101046.48
2018-12-23T02:22:20.562Z,101056.23
2018-12-23T02:25:28.243Z,101055.88
2018-12-23T02:28:35.892Z,101055.92
2018-12-23T02:31:43.450Z,101058.42
2018-12-23T02:35:00.607Z,101056.99
2018-12-23T02:38:17.658Z,101053.56
2018-12-23T02:41:34.778Z,101044.64
2018-12-23T02:44:42.826Z,101044.77
2018-12-23T02:47:50.458Z,101046.83
2018-12-23T02:51:07.746Z,101045.03
2018-12-23T02:54:24.775Z,101050.92
2018-12-23T02:57:41.820Z,101049.65
2018-12-23T03:00:58.847Z,101046.22
2018-12-23T03:04:15.874Z,101051.28
2018-12-23T03:07:32.962Z,101047.02
2018-12-23T03:10:49.946Z,101048.25
2018-12-23T03:14:07.092Z,101039.77
2018-12-23T03:17:24.153Z,101043.55
2018-12-23T03:20:41.155Z,101049.05
2018-12-23T03:23:48.832Z,101052.95
2018-12-23T03:26:56.500Z,101047.81
2018-12-23T03:30:04.590Z,101045.26
2018-12-23T03:33:12.261Z,101041.44
2018-12-23T03:36:19.936Z,101033.30
2018-12-23T03:39:37.386Z,101028.11
2018-12-23T03:42:45.068Z,101027.31
2018-12-23T03:45:52.656Z,101032.41
2018-12-23T03:49:00.288Z,101028.98
2018-12-23T03:52:19.555Z,101021.16
2018-12-23T03:55:36.607Z,101019.45
2018-12-23T03:58:53.696Z,101029.61
2018-12-23T04:02:10.664Z,101026.62
2018-12-23T04:05:28.590Z,101031.71
2018-12-23T04:08:36.243Z,101033.08
2018-12-23T04:11:44.049Z,101036.47
2018-12-23T04:15:01.141Z,101030.39
2018-12-23T04:18:09.087Z,101026.22
2018-12-23T04:21:16.768Z,101030.45
2018-12-23T04:24:24.445Z,101030.44
2018-12-23T04:27:41.532Z,101032.41
2018-12-23T04:30:49.203Z,101033.38
2018-12-23T04:33:56.957Z,101032.90
2018-12-23T04:37:04.717Z,101033.30
2018-12-23T04:40:12.405Z,101028.20
2018-12-23T04:43:20.002Z,101027.75
2018-12-23T04:46:27.681Z,101028.59
2018-12-23T04:49:44.873Z,101032.72
2018-12-23T04:53:01.968Z,101031.39
2018-12-23T04:56:19.026Z,101040.77
2018-12-23T04:59:26.737Z,101045.52
2018-12-23T05:02:34.500Z,101051.91
2018-12-23T05:05:42.254Z,101050.19
2018-12-23T05:08:50.221Z,101044.25
2018-12-23T05:11:57.907Z,101048.03
2018-12-23T05:15:15.314Z,101031.79
2018-12-23T05:18:32.277Z,101044.95
2018-12-23T05:21:49.322Z,101042.39
2018-12-23T05:25:06.586Z,101042.79
2018-12-23T05:28:14.356Z,101039.53
2018-12-23T05:31:21.925Z,101036.50
2018-12-23T05:34:29.646Z,101026.73
2018-12-23T05:37:37.310Z,101033.95
2018-12-23T05:40:44.960Z,101036.02
2018-12-23T05:43:52.793Z,101038.56
2018-12-23T05:47:09.842Z,101036.72
2018-12-23T05:50:26.893Z,101043.94
2018-12-23T05:53:34.752Z,101052.55
2018-12-23T05:56:42.516Z,101044.90
2018-12-23T06:00:00.715Z,101041.37
2018-12-23T06:03:08.451Z,101051.23
2018-12-23T06:06:25.762Z,101052.80
2018-12-23T06:09:33.696Z,101056.73
2018-12-23T06:12:41.442Z,101046.92
2018-12-23T06:15:49.070Z,101052.52
2018-12-23T06:18:55.734Z,101052.47
2018-12-23T06:22:03.411Z,101052.91
2018-12-23T06:25:20.925Z,101052.41
2018-12-23T06:28:28.590Z,101061.84
2018-12-23T06:31:36.309Z,101055.06
2018-12-23T06:34:53.454Z,101055.41
2018-12-23T06:38:10.900Z,101061.40
2018-12-23T06:41:18.527Z,101070.85
2018-12-23T06:44:26.196Z,101064.08
2018-12-23T06:47:43.824Z,101055.94
2018-12-23T06:50:51.456Z,101065.00
2018-12-23T06:53:59.008Z,101065.89
2018-12-23T06:57:06.581Z,101067.61
2018-12-23T07:00:23.755Z,101063.28
2018-12-23T07:03:31.631Z,101062.11
2018-12-23T07:06:39.311Z,101057.88
2018-12-23T07:09:47.000Z,101061.31
2018-12-23T07:13:04.266Z,101063.33
2018-12-23T07:16:11.366Z,101061.75
2018-12-23T07:19:19.706Z,101059.20
2018-12-23T07:22:27.346Z,101071.52
2018-12-23T07:25:44.478Z,101062.48
2018-12-23T07:29:01.512Z,101059.94
2018-12-23T07:32:18.535Z,101059.52
2018-12-23T07:35:35.548Z,101069.72
2018-12-23T07:38:52.563Z,101068.44
2018-12-23T07:42:09.879Z,101072.27
2018-12-23T07:45:28.807Z,101069.32
2018-12-23T07:48:46.019Z,101060.39
2018-12-23T07:52:02.858Z,101073.98
2018-12-23T07:55:19.890Z,101077.84
2018-12-23T07:58:36.972Z,101082.08
2018-12-23T08:01:44.633Z,101083.92
2018-12-23T08:04:52.422Z,101082.24
2018-12-23T08:08:00.404Z,101079.69
2018-12-23T08:11:08.083Z,101077.98
2018-12-23T08:14:15.854Z,101087.30
2018-12-23T08:17:33.285Z,101076.97
2018-12-23T08:20:40.939Z,101081.76
2018-12-23T08:23:48.614Z,101077.09
2018-12-23T08:26:56.287Z,101072.39
2018-12-23T08:30:02.987Z,101065.97
2018-12-23T08:33:10.756Z,101067.69
2018-12-23T08:36:18.601Z,101066.81
2018-12-23T08:39:26.419Z,101076.58
2018-12-23T08:42:43.734Z,101059.90
2018-12-23T08:46:00.776Z,101065.35
2018-12-23T08:49:17.782Z,101067.51
2018-12-23T08:52:36.291Z,101059.85
2018-12-23T08:55:56.345Z,101065.35
2018-12-23T08:59:13.640Z,101070.85
2018-12-23T09:02:21.754Z,101070.94
2018-12-23T09:05:29.317Z,101068.39
2018-12-23T09:08:37.449Z,101071.34
2018-12-23T09:11:45.292Z,101067.07
2018-12-23T09:15:02.889Z,101069.89
2018-12-23T09:18:19.130Z,101061.09
2018-12-23T09:21:19.910Z,101073.36
2018-12-23T09:24:37.135Z,101077.50
2018-12-23T09:27:44.797Z,101083.12
2018-12-23T09:30:52.426Z,101074.64
2018-12-23T09:34:00.160Z,101074.99
2018-12-23T09:37:17.287Z,101066.80
2018-12-23T09:40:25.048Z,101068.61
2018-12-23T09:43:32.606Z,101072.39
2018-12-23T09:46:40.180Z,101075.38
2018-12-23T09:49:47.738Z,101068.56
2018-12-23T09:53:04.722Z,101067.11
2018-12-23T09:56:21.861Z,101063.28
2018-12-23T09:59:29.535Z,101065.92
2018-12-23T10:02:37.128Z,101062.92
2018-12-23T10:05:44.938Z,101066.71
2018-12-23T10:09:03.029Z,101056.38
2018-12-23T10:12:10.722Z,101043.70
2018-12-23T10:15:18.275Z,101050.91
2018-12-23T10:18:25.839Z,101049.16
2018-12-23T10:21:43.077Z,101050.72
2018-12-23T10:25:00.005Z,101044.73
2018-12-23T10:28:17.069Z,101047.25
2018-12-23T10:31:34.099Z,101042.09
2018-12-23T10:34:51.238Z,101036.55
2018-12-23T10:38:08.282Z,101033.55
2018-12-23T10:41:25.374Z,101027.56
2018-12-23T10:44:31.426Z,101020.45
2018-12-23T10:47:39.105Z,101020.84
2018-12-23T10:50:46.689Z,101015.73
2018-12-23T10:54:04.144Z,101015.58
2018-12-23T10:57:21.164Z,101021.08
2018-12-23T11:00:38.225Z,101025.75
2018-12-23T11:03:55.250Z,101017.26
2018-12-23T11:07:12.340Z,101012.98
2018-12-23T11:10:20.081Z,101023.29
2018-12-23T11:13:27.757Z,100999.09
2018-12-23T11:16:35.431Z,100997.77
2018-12-23T11:19:52.547Z,100989.18
2018-12-23T11:23:09.627Z,100997.23
2018-12-23T11:26:26.613Z,100989.97
2018-12-23T11:29:43.655Z,100981.03
2018-12-23T11:32:51.475Z,100976.91
2018-12-23T11:35:59.292Z,100977.78
2018-12-23T11:39:08.768Z,100973.08
2018-12-23T11:42:16.698Z,100969.64
2018-12-23T11:45:24.649Z,100964.53
2018-12-23T11:48:32.398Z,100967.48
2018-12-23T11:51:40.143Z,100968.75
2018-12-23T11:54:57.480Z,100966.06
2018-12-23T11:58:05.423Z,100970.03
2018-12-23T12:01:13.088Z,100954.28
2018-12-23T12:04:20.655Z,100962.37
2018-12-23T12:07:27.816Z,100964.09
2018-12-23T12:10:44.926Z,100952.47
2018-12-23T12:14:02.205Z,100960.95
2018-12-23T12:17:09.967Z,100959.82
2018-12-23T12:20:17.603Z,100951.77
2018-12-23T12:23:25.279Z,100956.83
2018-12-23T12:26:42.356Z,100959.68
2018-12-23T12:29:50.027Z,100958.16
2018-12-23T12:32:58.021Z,100952.61
2018-12-23T12:36:15.319Z,100944.41
2018-12-23T12:39:23.012Z,100945.39
2018-12-23T12:42:30.581Z,100944.55
2018-12-23T12:45:38.264Z,100950.89
2018-12-23T12:48:55.551Z,100950.35
2018-12-23T12:52:12.795Z,100939.30
2018-12-23T12:55:20.614Z,100937.73
2018-12-23T12:58:28.281Z,100929.23
2018-12-23T13:01:45.561Z,100946.08
2018-12-23T13:05:02.611Z,100938.03
2018-12-23T13:08:08.664Z,100939.84
2018-12-23T13:11:16.437Z,100940.73
2018-12-23T13:14:24.600Z,100933.52
2018-12-23T13:17:32.280Z,100936.06
2018-12-23T13:20:39.858Z,100931.80
2018-12-23T13:23:57.252Z,100930.38
2018-12-23T13:27:04.360Z,100929.69
2018-12-23T13:30:22.976Z,100927.82
2018-12-23T13:33:40.092Z,100920.61
2018-12-23T13:36:57.158Z,100922.32
2018-12-23T13:40:48.152Z,100922.03
2018-12-23T13:44:41.490Z,100922.47
2018-12-23T13:48:21.273Z,100935.63
2018-12-23T13:52:15.950Z,100939.05
2018-12-23T13:56:22.804Z,100937.39
2018-12-23T14:00:14.220Z,100925.91
2018-12-23T14:03:54.674Z,100928.03
2018-12-23T14:07:50.249Z,100918.15
2018-12-23T14:11:17.728Z,100918.27
2018-12-23T14:14:25.411Z,100915.76
2018-12-23T14:17:42.443Z,100898.61
2018-12-23T14:20:59.479Z,100891.45
2018-12-23T14:24:16.361Z,100889.73
2018-12-23T14:27:33.378Z,100893.16
2018-12-23T14:30:50.438Z,100891.89
2018-12-23T14:34:07.476Z,100890.61
2018-12-23T14:37:24.818Z,100889.34
2018-12-23T14:40:32.481Z,100892.49
2018-12-23T14:43:40.255Z,100881.45
2018-12-23T14:46:57.645Z,100877.08
2018-12-23T14:50:14.593Z,100883.91
2018-12-23T14:53:31.621Z,100880.52
2018-12-23T14:56:48.633Z,100883.07
2018-12-23T15:00:06.784Z,100885.67
2018-12-23T15:03:14.361Z,100879.02
2018-12-23T15:06:31.599Z,100871.24
2018-12-23T15:09:39.349Z,100880.73
2018-12-23T15:12:47.008Z,100872.69
2018-12-23T15:15:54.573Z,100871.41
2018-12-23T15:19:47.165Z,100870.50
2018-12-23T15:23:10.656Z,100862.41
2018-12-23T15:26:22.501Z,100862.85
2018-12-23T15:29:29.637Z,100861.69
2018-12-23T15:32:38.564Z,100856.59
2018-12-23T15:35:55.405Z,100856.91
2018-12-23T15:39:02.686Z,100848.59
2018-12-23T15:42:08.602Z,100846.48
2018-12-23T15:45:25.105Z,100845.89
2018-12-23T15:48:32.399Z,100840.10
2018-12-23T15:51:49.206Z,100832.34
2018-12-23T15:54:56.329Z,100828.67
2018-12-23T15:58:03.686Z,100821.89
2018-12-23T16:01:10.849Z,100821.89
2018-12-23T16:04:18.053Z,100829.98
2018-12-23T16:07:35.005Z,100828.61
2018-12-23T16:10:51.784Z,100819.69
2018-12-23T16:13:58.937Z,100821.08
2018-12-23T16:17:15.900Z,100821.84
2018-12-23T16:20:23.141Z,100827.06
2018-12-23T16:23:30.349Z,100825.79
2018-12-23T16:26:35.889Z,100822.41
2018-12-23T16:29:43.201Z,100816.91
2018-12-23T16:33:00.105Z,100821.95
2018-12-23T16:36:07.250Z,100825.89
2018-12-23T16:39:14.494Z,100826.77
2018-12-23T16:42:21.715Z,100831.44
2018-12-23T16:45:28.849Z,100821.72
2018-12-23T16:48:36.091Z,100822.60
2018-12-23T16:51:44.624Z,100814.95
2018-12-23T16:54:51.943Z,100819.66
2018-12-23T16:58:01.267Z,100817.55
2018-12-23T17:01:08.130Z,100820.09
2018-12-23T17:04:30.944Z,100814.02
2018-12-23T17:07:38.173Z,100815.89
2018-12-23T17:10:45.439Z,100811.68
2018-12-23T17:13:52.563Z,100812.12
2018-12-23T17:16:59.712Z,100810.02
2018-12-23T17:20:09.645Z,100815.55
2018-12-23T17:23:16.801Z,100808.34
2018-12-23T17:26:24.570Z,100807.51
2018-12-23T17:29:31.719Z,100811.78
2018-12-23T17:32:38.969Z,100817.27
2018-12-23T17:35:46.120Z,100817.27
2018-12-23T17:38:53.279Z,100809.62
2018-12-23T17:42:00.512Z,100801.13
2018-12-23T17:45:07.737Z,100800.30
2018-12-23T17:48:15.064Z,100801.57
2018-12-23T17:51:22.597Z,100807.95
2018-12-23T17:54:30.025Z,100802.45
2018-12-23T17:57:37.497Z,100805.01
2018-12-23T18:00:44.767Z,100806.28
2018-12-23T18:03:51.914Z,100805.01
2018-12-23T18:07:03.723Z,100797.80
2018-12-23T18:10:08.515Z,100792.70
2018-12-23T18:13:15.900Z,100792.70
2018-12-23T18:16:32.819Z,100790.05
2018-12-23T18:19:51.196Z,100790.44
2018-12-23T18:22:58.439Z,100794.41
2018-12-23T18:26:05.658Z,100793.13
2018-12-23T18:29:22.823Z,100781.16
2018-12-23T18:32:30.171Z,100785.58
2018-12-23T18:35:37.428Z,100786.02
2018-12-23T18:38:44.944Z,100783.42
2018-12-23T18:41:52.071Z,100780.50
2018-12-23T18:44:59.339Z,100781.77
2018-12-23T18:48:06.644Z,100782.59
2018-12-23T18:51:13.793Z,100782.66
2018-12-23T18:54:21.038Z,100780.94
2018-12-23T18:57:31.089Z,100788.20
2018-12-23T19:00:39.101Z,100789.91
2018-12-23T19:03:46.304Z,100787.41
2018-12-23T19:06:53.781Z,100788.73
2018-12-23T19:10:26.405Z,100786.92
2018-12-23T19:14:03.965Z,100792.61
2018-12-23T19:17:51.318Z,100790.06
2018-12-23T19:21:38.921Z,100794.83
2018-12-23T19:25:17.995Z,100794.81
2018-12-23T19:28:52.614Z,100796.53
2018-12-23T19:32:42.429Z,100793.66
2018-12-23T19:36:29.035Z,100798.36
2018-12-23T19:40:38.373Z,100799.14
2018-12-23T19:44:07.667Z,100803.02
2018-12-23T19:47:36.057Z,100805.27
2018-12-23T19:51:32.859Z,100793.70
2018-12-23T19:55:30.268Z,100795.56
2018-12-23T19:59:06.965Z,100798.12
2018-12-23T20:02:42.204Z,100804.09
2018-12-23T20:06:35.466Z,100806.64
2018-12-23T20:10:31.199Z,100809.00
2018-12-23T20:14:17.714Z,100812.53
2018-12-23T20:18:33.794Z,100809.44
2018-12-23T20:22:24.029Z,100806.50
2018-12-23T20:26:07.349Z,100815.86
2018-12-23T20:29:45.773Z,100815.12
2018-12-23T20:33:29.119Z,100812.59
2018-12-23T20:37:11.109Z,100811.73
2018-12-23T20:40:49.640Z,100817.23
2018-12-23T20:44:10.346Z,100822.77
2018-12-23T20:48:02.091Z,100826.66
2018-12-23T20:51:50.018Z,100827.05
2018-12-23T20:55:43.335Z,100825.87
2018-12-23T20:59:40.112Z,100833.95
2018-12-23T21:03:16.517Z,100828.11
2018-12-23T21:06:51.131Z,100829.78
2018-12-23T21:10:41.481Z,100836.55
2018-12-23T21:14:38.005Z,100840.91
2018-12-23T21:18:27.616Z,100846.84
2018-12-23T21:22:08.991Z,100853.08
2018-12-23T21:25:44.108Z,100852.81
2018-12-23T21:29:20.772Z,100863.84
2018-12-23T21:33:13.504Z,100859.59
2018-12-23T21:36:29.243Z,100865.62
2018-12-23T21:40:29.611Z,100869.83
2018-12-23T21:44:19.485Z,100876.16
2018-12-23T21:48:03.775Z,100883.55
2018-12-23T21:52:20.257Z,100887.29
2018-12-23T21:56:12.189Z,100894.69
2018-12-23T21:59:45.584Z,100899.38
2018-12-23T22:03:49.323Z,100901.50
2018-12-23T22:07:22.447Z,100904.42
2018-12-23T22:11:11.159Z,100907.41
2018-12-23T22:14:31.360Z,100913.74
2018-12-23T22:17:38.617Z,100922.38
2018-12-23T22:20:45.745Z,100926.59
2018-12-23T22:23:52.989Z,100928.70
2018-12-23T22:27:00.320Z,100932.66
2018-12-23T22:30:17.092Z,100930.02
2018-12-23T22:33:24.371Z,100937.89
2018-12-23T22:36:31.514Z,100935.34
2018-12-23T22:39:38.747Z,100944.34
2018-12-23T22:42:55.664Z,100942.63
2018-12-23T22:46:02.796Z,100954.26
2018-12-23T22:49:10.033Z,100954.17
2018-12-23T22:52:17.165Z,100956.80
2018-12-23T22:55:24.412Z,100961.63
2018-12-23T22:58:31.541Z,100968.00
2018-12-23T23:01:40.152Z,100966.73
2018-12-23T23:04:47.568Z,100972.82
2018-12-23T23:07:54.909Z,100977.92
2018-12-23T23:11:11.799Z,100976.21
2018-12-23T23:14:18.952Z,100985.68
2018-12-23T23:17:26.194Z,100992.13
2018-12-23T23:20:33.901Z,100993.45
2018-12-23T23:23:50.402Z,101000.25
2018-12-23T23:26:57.176Z,101006.73
2018-12-23T23:30:05.304Z,101010.23
2018-12-23T23:33:12.683Z,101013.21
2018-12-23T23:36:19.990Z,101013.69
2018-12-23T23:39:27.202Z,101016.70
2018-12-23T23:42:34.464Z,101021.83
2018-12-23T23:45:41.694Z,101024.02
2018-12-23T23:48:48.931Z,101028.31
2018-12-23T23:51:56.181Z,101030.89
2018-12-23T23:55:03.504Z,101036.49
2018-12-23T23:58:10.746Z,101043.30
